Time;durP1;ratioP1;P1;durP2;ratioP2;P2;SDS_P1;SDS_P2;PMS_P1;PMS_P2;Temp;Humidity;BMP_temperature;BMP_pressure;BME280_temperature;BME280_humidity;BME280_pressure;Samples;Min_cycle;Max_cycle;Signal;HPM_P1;HPM_P2
2022/07/08 00:00:49;;;;;;;9.35;1.83;;;14.60;99.90;;;;;;6211959;23;20016;-70
2022/07/08 00:03:18;;;;;;;7.22;1.95;;;14.50;99.90;;;;;;6211074;23;20089;-69
2022/07/08 00:05:44;;;;;;;9.30;1.73;;;14.60;99.90;;;;;;6212711;23;20081;-69
2022/07/08 00:08:10;;;;;;;11.45;2.05;;;14.50;99.90;;;;;;6238531;23;20092;-69
2022/07/08 00:10:36;;;;;;;12.30;2.25;;;14.60;99.90;;;;;;6187585;23;20023;-69
2022/07/08 00:13:02;;;;;;;9.65;1.85;;;14.60;99.90;;;;;;6238163;23;20013;-69
2022/07/08 00:15:29;;;;;;;10.57;1.77;;;14.60;99.90;;;;;;6238211;23;20458;-69
2022/07/08 00:17:55;;;;;;;14.70;2.75;;;14.60;99.90;;;;;;6213116;23;20355;-69
2022/07/08 00:20:21;;;;;;;12.88;2.42;;;14.60;99.90;;;;;;6211202;23;20027;-69
2022/07/08 00:22:47;;;;;;;6.40;1.42;;;14.60;99.90;;;;;;6212901;23;20024;-69
2022/07/08 00:25:13;;;;;;;12.65;1.80;;;14.60;99.90;;;;;;6238621;23;20022;-68
2022/07/08 00:27:39;;;;;;;6.60;1.65;;;14.70;99.90;;;;;;6240044;23;20020;-70
2022/07/08 00:30:05;;;;;;;9.43;1.80;;;14.70;99.90;;;;;;6162867;23;20031;-69
2022/07/08 00:32:31;;;;;;;8.40;1.35;;;14.70;99.90;;;;;;6238759;23;20139;-69
2022/07/08 00:34:56;;;;;;;7.85;1.30;;;14.70;99.90;;;;;;6239664;23;20048;-69
2022/07/08 00:37:22;;;;;;;8.82;1.70;;;14.60;99.90;;;;;;6211482;23;20020;-69
2022/07/08 00:39:48;;;;;;;14.40;1.92;;;14.60;99.90;;;;;;6212849;23;20386;-69
2022/07/08 00:42:13;;;;;;;10.80;2.05;;;14.60;99.90;;;;;;6210477;23;20112;-70
2022/07/08 00:44:39;;;;;;;12.48;2.65;;;14.70;99.90;;;;;;6187731;23;20431;-70
2022/07/08 00:47:05;;;;;;;14.93;1.83;;;14.70;99.90;;;;;;6211762;23;20472;-69
2022/07/08 00:49:31;;;;;;;4.88;1.40;;;14.70;99.90;;;;;;6238791;23;20028;-69
2022/07/08 00:51:57;;;;;;;11.75;1.70;;;14.70;99.90;;;;;;6212330;23;20114;-69
2022/07/08 00:54:24;;;;;;;9.52;2.05;;;14.70;99.90;;;;;;6211329;23;20447;-69
2022/07/08 00:56:50;;;;;;;14.32;2.15;;;14.70;99.90;;;;;;6212497;23;20016;-69
2022/07/08 00:59:16;;;;;;;7.72;1.27;;;14.70;99.90;;;;;;6210800;23;20107;-70
2022/07/08 01:01:42;;;;;;;10.52;2.25;;;14.70;99.90;;;;;;6187821;23;20019;-69
2022/07/08 01:04:08;;;;;;;7.88;1.40;;;14.70;99.90;;;;;;6238745;23;20067;-69
2022/07/08 01:06:34;;;;;;;8.82;1.80;;;14.60;99.90;;;;;;6211815;23;20449;-69
2022/07/08 01:09:01;;;;;;;8.48;1.98;;;14.60;99.90;;;;;;6239126;23;20020;-69
2022/07/08 01:11:27;;;;;;;13.40;2.05;;;14.60;99.90;;;;;;6211275;23;20024;-69
2022/07/08 01:13:54;;;;;;;7.30;1.25;;;14.50;99.90;;;;;;6239940;23;20020;-69
2022/07/08 01:16:23;;;;;;;8.38;1.98;;;14.50;99.90;;;;;;6238050;23;20019;-69
2022/07/08 01:18:49;;;;;;;14.07;2.08;;;14.50;99.90;;;;;;6212012;23;20016;-69
2022/07/08 01:21:15;;;;;;;12.98;2.20;;;14.40;99.90;;;;;;6210607;23;20040;-69
2022/07/08 01:23:40;;;;;;;17.20;3.25;;;14.40;99.90;;;;;;6212016;23;20016;-69
2022/07/08 01:26:11;;;;;;;9.70;2.33;;;14.30;99.90;;;;;;6211114;23;20016;-69
2022/07/08 01:28:42;;;;;;;13.52;2.22;;;14.30;99.90;;;;;;6184771;23;20386;-69
2022/07/08 01:31:07;;;;;;;14.85;2.90;;;14.20;99.90;;;;;;6210494;23;20031;-69
2022/07/08 01:33:33;;;;;;;20.98;4.22;;;14.20;99.90;;;;;;6236247;23;20020;-70
2022/07/08 01:35:59;;;;;;;13.82;3.40;;;14.20;99.90;;;;;;6211431;23;20024;-69
2022/07/08 01:38:25;;;;;;;14.30;4.35;;;14.10;99.90;;;;;;6209885;23;20023;-69
2022/07/08 01:40:50;;;;;;;11.13;4.25;;;14.10;99.90;;;;;;6210374;23;20462;-70
2022/07/08 01:43:16;;;;;;;12.48;3.40;;;14.10;99.90;;;;;;6184702;23;20012;-69
2022/07/08 01:45:42;;;;;;;12.73;2.42;;;14.10;99.90;;;;;;6238733;23;20016;-69
2022/07/08 01:48:07;;;;;;;13.30;1.83;;;14.10;99.90;;;;;;6211746;23;20024;-69
2022/07/08 01:50:33;;;;;;;14.35;2.20;;;14.00;99.90;;;;;;6171768;23;20016;-69
2022/07/08 01:52:59;;;;;;;10.68;2.20;;;14.00;99.90;;;;;;6181445;23;20048;-70
2022/07/08 01:55:25;;;;;;;14.32;2.10;;;14.00;99.90;;;;;;6155542;23;20021;-69
2022/07/08 01:57:51;;;;;;;9.07;1.50;;;13.90;99.90;;;;;;6157091;23;20317;-69
2022/07/08 02:00:17;;;;;;;11.18;2.08;;;13.90;99.90;;;;;;6180222;23;20055;-70
2022/07/08 02:02:43;;;;;;;8.80;2.03;;;13.90;99.90;;;;;;6208000;23;20125;-69
2022/07/08 02:05:09;;;;;;;9.23;2.05;;;13.90;99.90;;;;;;6181680;23;20046;-70
2022/07/08 02:07:35;;;;;;;13.73;3.47;;;13.90;99.90;;;;;;6207492;23;20102;-69
2022/07/08 02:10:02;;;;;;;12.00;2.83;;;14.00;99.90;;;;;;6156941;23;20019;-69
2022/07/08 02:12:28;;;;;;;16.27;2.55;;;14.00;99.90;;;;;;6179988;23;20482;-69
2022/07/08 02:15:01;;;;;;;17.45;4.32;;;14.10;99.90;;;;;;6208995;23;20046;-70
2022/07/08 02:17:32;;;;;;;11.90;2.35;;;14.10;99.90;;;;;;6180197;23;20024;-70
2022/07/08 02:19:58;;;;;;;17.05;2.60;;;14.00;99.90;;;;;;6181790;23;20071;-69
2022/07/08 02:22:24;;;;;;;13.75;2.38;;;14.00;99.90;;;;;;6180593;23;20055;-69
2022/07/08 02:24:50;;;;;;;10.75;2.50;;;13.90;99.90;;;;;;6181163;23;20020;-69
2022/07/08 02:27:17;;;;;;;8.95;1.83;;;13.80;99.90;;;;;;6181314;23;20013;-70
2022/07/08 02:29:43;;;;;;;10.45;2.15;;;13.80;99.90;;;;;;6206827;23;20489;-69
2022/07/08 02:32:09;;;;;;;12.15;2.38;;;13.70;99.90;;;;;;6208608;23;20017;-69
2022/07/08 02:34:35;;;;;;;14.25;2.10;;;13.70;99.90;;;;;;6206589;23;20067;-69
2022/07/08 02:37:00;;;;;;;12.48;1.90;;;13.70;99.90;;;;;;6181569;23;20095;-69
2022/07/08 02:39:27;;;;;;;8.75;2.05;;;13.70;99.90;;;;;;6180104;23;20456;-69
2022/07/08 02:41:53;;;;;;;14.63;2.85;;;13.60;99.90;;;;;;6181314;23;20079;-69
2022/07/08 02:44:18;;;;;;;15.65;2.55;;;13.60;99.90;;;;;;6156444;23;20020;-69
2022/07/08 02:46:45;;;;;;;12.80;1.98;;;13.60;99.90;;;;;;6180109;23;20555;-70
2022/07/08 02:49:11;;;;;;;11.32;2.28;;;13.60;99.90;;;;;;6208529;23;20016;-69
2022/07/08 02:51:38;;;;;;;14.20;2.55;;;13.70;99.90;;;;;;6206395;23;20398;-69
2022/07/08 02:54:05;;;;;;;8.68;2.17;;;13.70;99.90;;;;;;6236886;23;20119;-70
2022/07/08 02:56:32;;;;;;;11.20;2.28;;;13.60;99.90;;;;;;6210260;23;20462;-70
2022/07/08 02:58:59;;;;;;;6.57;2.58;;;13.60;99.90;;;;;;6236316;23;20410;-70
2022/07/08 03:01:25;;;;;;;17.55;2.38;;;13.60;99.90;;;;;;6211386;23;20463;-70
2022/07/08 03:03:51;;;;;;;13.05;2.40;;;13.60;99.90;;;;;;6235623;23;20031;-69
2022/07/08 03:06:16;;;;;;;16.83;2.80;;;13.50;99.90;;;;;;6238307;23;20024;-70
2022/07/08 03:08:42;;;;;;;14.82;3.20;;;13.50;99.90;;;;;;6235167;23;20282;-69
2022/07/08 03:11:08;;;;;;;15.02;3.75;;;13.50;99.90;;;;;;6237162;23;20300;-69
2022/07/08 03:13:37;;;;;;;14.27;3.83;;;13.50;99.90;;;;;;6234922;23;20031;-69
2022/07/08 03:16:04;;;;;;;12.63;2.45;;;13.50;99.90;;;;;;6236485;23;20139;-69
2022/07/08 03:18:34;;;;;;;10.73;2.33;;;13.50;99.90;;;;;;6235312;23;20493;-70
2022/07/08 03:21:00;;;;;;;9.55;1.75;;;13.50;99.90;;;;;;6235917;23;20024;-69
2022/07/08 03:23:26;;;;;;;11.15;1.85;;;13.50;99.90;;;;;;6236179;23;20023;-69
2022/07/08 03:25:52;;;;;;;9.70;1.60;;;13.50;99.90;;;;;;6260917;22;20027;-70
2022/07/08 03:28:18;;;;;;;10.45;2.45;;;13.40;99.90;;;;;;6236901;23;20020;-70
2022/07/08 03:30:44;;;;;;;10.95;2.67;;;13.40;99.90;;;;;;6235026;23;20459;-69
2022/07/08 03:33:10;;;;;;;10.25;2.28;;;13.40;99.90;;;;;;6236572;22;20131;-69
2022/07/08 03:35:35;;;;;;;10.98;2.20;;;13.40;99.90;;;;;;6235243;23;20043;-69
2022/07/08 03:38:01;;;;;;;12.73;2.60;;;13.40;99.90;;;;;;6211008;23;20024;-69
2022/07/08 03:43:11;;;;;;;16.70;2.90;;;13.50;99.90;;;;;;6237055;23;20086;-69
2022/07/08 03:45:36;;;;;;;11.13;2.00;;;13.50;99.90;;;;;;6236269;23;20020;-69
2022/07/08 03:48:03;;;;;;;12.30;3.20;;;13.50;99.90;;;;;;6235094;23;20111;-70
2022/07/08 03:50:30;;;;;;;13.23;3.42;;;13.40;99.90;;;;;;6235980;23;20436;-70
2022/07/08 03:52:56;;;;;;;8.63;2.28;;;13.40;99.90;;;;;;6235568;23;20066;-69
2022/07/08 03:55:23;;;;;;;9.32;2.20;;;13.40;99.90;;;;;;6235492;23;20013;-69
2022/07/08 03:57:49;;;;;;;12.77;2.80;;;13.40;99.90;;;;;;6235495;23;20436;-69
2022/07/08 04:00:15;;;;;;;14.93;3.28;;;13.50;99.90;;;;;;6235507;23;20044;-70
2022/07/08 04:02:41;;;;;;;9.82;2.95;;;13.50;99.90;;;;;;6236167;23;20019;-70
2022/07/08 04:05:07;;;;;;;15.70;4.28;;;13.60;99.90;;;;;;6234953;23;20024;-69
2022/07/08 04:07:34;;;;;;;17.67;4.60;;;13.60;99.90;;;;;;6210620;23;20313;-69
2022/07/08 04:09:59;;;;;;;16.63;4.97;;;13.70;99.90;;;;;;6209942;23;20024;-69
2022/07/08 04:12:25;;;;;;;13.73;6.05;;;13.60;99.90;;;;;;6235674;23;20023;-69
2022/07/08 04:14:51;;;;;;;17.25;4.95;;;13.60;99.90;;;;;;6210176;23;20016;-69
2022/07/08 04:17:17;;;;;;;11.70;2.85;;;13.40;99.90;;;;;;6211875;23;20423;-69
2022/07/08 04:19:42;;;;;;;12.80;3.65;;;13.30;99.90;;;;;;6211715;23;20459;-69
2022/07/08 04:22:08;;;;;;;14.45;2.95;;;13.30;99.90;;;;;;6237135;23;20023;-70
2022/07/08 04:24:34;;;;;;;18.52;3.58;;;13.30;99.90;;;;;;6237486;23;20032;-69
2022/07/08 04:27:00;;;;;;;10.43;2.40;;;13.20;99.90;;;;;;6237239;23;20347;-69
2022/07/08 04:29:26;;;;;;;10.45;2.00;;;13.30;99.90;;;;;;6237936;23;20364;-69
2022/07/08 04:31:51;;;;;;;7.80;1.55;;;13.30;99.90;;;;;;6238826;23;20020;-69
2022/07/08 04:34:17;;;;;;;15.63;1.92;;;13.30;99.90;;;;;;6237812;23;20451;-69
2022/07/08 04:36:42;;;;;;;14.70;2.08;;;13.20;99.90;;;;;;6238957;23;20055;-69
2022/07/08 04:39:09;;;;;;;16.98;2.25;;;13.20;99.90;;;;;;6262246;22;20016;-69
2022/07/08 04:41:35;;;;;;;10.57;1.98;;;13.20;99.90;;;;;;6239184;23;20058;-69
2022/07/08 04:44:00;;;;;;;16.20;2.70;;;13.20;99.90;;;;;;6211119;23;20314;-69
2022/07/08 04:46:26;;;;;;;9.65;2.15;;;13.30;99.90;;;;;;6212833;23;20432;-69
2022/07/08 04:48:52;;;;;;;9.48;2.33;;;13.30;99.90;;;;;;6211040;23;20317;-69
2022/07/08 04:51:18;;;;;;;10.85;3.05;;;13.30;99.90;;;;;;6212598;23;20066;-69
2022/07/08 04:53:44;;;;;;;11.80;2.90;;;13.40;99.90;;;;;;6210924;23;20455;-69
2022/07/08 04:56:10;;;;;;;12.50;3.75;;;13.40;99.90;;;;;;6239129;23;20052;-69
2022/07/08 04:58:36;;;;;;;14.45;4.10;;;13.40;99.90;;;;;;6236786;23;20032;-69
2022/07/08 05:01:02;;;;;;;14.63;5.70;;;13.40;99.90;;;;;;6238396;23;20317;-69
2022/07/08 05:03:27;;;;;;;19.40;3.80;;;13.40;99.90;;;;;;6240044;23;20462;-70
2022/07/08 05:05:53;;;;;;;14.45;3.00;;;13.50;99.90;;;;;;6235626;23;20024;-69
2022/07/08 05:08:19;;;;;;;12.07;2.15;;;13.60;99.90;;;;;;6212382;23;20870;-69
2022/07/08 05:10:44;;;;;;;9.20;2.05;;;13.70;99.90;;;;;;6238222;22;20020;-69
2022/07/08 05:13:12;;;;;;;13.75;2.45;;;13.90;99.90;;;;;;6237589;23;20020;-69
2022/07/08 05:15:37;;;;;;;11.48;2.38;;;14.10;99.90;;;;;;6262032;22;20020;-69
2022/07/08 05:18:03;;;;;;;15.25;2.03;;;14.10;99.90;;;;;;6236708;23;20069;-69
2022/07/08 05:20:30;;;;;;;15.32;2.10;;;14.10;99.90;;;;;;6239010;23;20353;-69
2022/07/08 05:22:56;;;;;;;12.70;2.30;;;14.20;99.90;;;;;;6235975;23;20070;-69
2022/07/08 05:25:21;;;;;;;13.18;2.47;;;14.20;99.90;;;;;;6212326;23;20012;-68
2022/07/08 05:27:47;;;;;;;18.70;5.70;;;14.30;99.90;;;;;;6237683;23;20047;-69
2022/07/08 05:30:13;;;;;;;13.82;3.33;;;14.40;99.90;;;;;;6237407;23;20016;-69
2022/07/08 05:32:40;;;;;;;18.15;2.95;;;14.50;99.90;;;;;;6236025;23;20016;-70
2022/07/08 05:35:07;;;;;;;18.70;6.03;;;14.60;99.90;;;;;;6236524;23;20441;-69
2022/07/08 05:37:35;;;;;;;17.02;2.83;;;14.70;99.90;;;;;;6236795;23;20066;-69
2022/07/08 05:40:00;;;;;;;12.75;3.35;;;14.80;99.90;;;;;;6236111;23;20020;-70
2022/07/08 05:42:26;;;;;;;18.90;3.15;;;14.90;99.90;;;;;;6239495;23;20044;-69
2022/07/08 05:44:52;;;;;;;15.93;3.35;;;14.90;99.90;;;;;;6261624;22;20024;-70
2022/07/08 05:47:18;;;;;;;15.13;3.03;;;14.90;99.90;;;;;;6237628;22;20023;-69
2022/07/08 05:49:44;;;;;;;10.98;2.25;;;15.00;99.90;;;;;;6210402;23;20027;-70
2022/07/08 05:52:10;;;;;;;16.58;2.30;;;15.00;99.90;;;;;;6236869;23;20016;-69
2022/07/08 05:54:37;;;;;;;13.23;3.13;;;15.10;99.90;;;;;;6211740;23;20080;-69
2022/07/08 05:57:03;;;;;;;14.68;2.30;;;15.10;99.90;;;;;;6210975;23;20024;-69
2022/07/08 05:59:29;;;;;;;18.95;2.67;;;15.20;99.90;;;;;;6239298;23;20035;-70
2022/07/08 06:01:55;;;;;;;11.82;2.05;;;15.20;99.90;;;;;;6210145;23;20020;-70
2022/07/08 06:04:21;;;;;;;9.07;2.28;;;15.30;99.90;;;;;;6239253;23;20016;-69
2022/07/08 06:06:47;;;;;;;10.90;2.03;;;15.40;99.90;;;;;;6209628;23;20376;-70
2022/07/08 06:09:13;;;;;;;13.68;2.05;;;15.40;99.90;;;;;;6186642;23;20062;-69
2022/07/08 06:11:39;;;;;;;8.20;2.03;;;15.40;99.90;;;;;;6160643;23;20024;-69
2022/07/08 06:14:05;;;;;;;11.80;1.98;;;15.50;99.90;;;;;;6211172;23;20094;-70
2022/07/08 06:16:30;;;;;;;20.80;2.50;;;15.60;99.90;;;;;;6210910;23;20433;-70
2022/07/08 06:18:56;;;;;;;17.13;2.03;;;15.60;99.90;;;;;;6210155;23;20027;-70
2022/07/08 06:21:22;;;;;;;10.15;1.83;;;15.70;99.90;;;;;;6185983;23;20020;-70
2022/07/08 06:23:48;;;;;;;12.23;2.05;;;15.70;99.90;;;;;;6237570;23;20035;-70
2022/07/08 06:26:14;;;;;;;10.98;1.80;;;15.80;99.90;;;;;;6238263;23;20475;-69
2022/07/08 06:28:39;;;;;;;15.48;1.95;;;15.80;99.90;;;;;;6185336;23;20031;-70
2022/07/08 06:31:06;;;;;;;21.58;3.75;;;15.90;99.90;;;;;;6211291;23;20023;-69
2022/07/08 06:33:31;;;;;;;13.10;3.00;;;15.90;99.90;;;;;;6236868;23;20016;-70
2022/07/08 06:35:57;;;;;;;7.45;1.80;;;15.90;99.90;;;;;;6184911;23;20325;-70
2022/07/08 06:38:22;;;;;;;11.45;2.28;;;15.90;99.90;;;;;;6211466;23;20024;-70
2022/07/08 06:40:48;;;;;;;9.85;1.92;;;15.90;99.90;;;;;;6236674;23;20024;-70
2022/07/08 06:43:14;;;;;;;11.85;2.00;;;15.90;99.90;;;;;;6238610;23;20103;-70
2022/07/08 06:45:41;;;;;;;11.15;2.20;;;16.00;99.90;;;;;;6210778;23;20765;-70
2022/07/08 06:48:07;;;;;;;12.68;2.72;;;16.00;99.90;;;;;;6211060;23;20468;-69
2022/07/08 06:50:33;;;;;;;8.75;2.17;;;16.10;99.90;;;;;;6209497;23;20055;-70
2022/07/08 06:52:59;;;;;;;13.07;2.53;;;16.10;99.90;;;;;;6185041;23;20035;-70
2022/07/08 06:55:24;;;;;;;11.38;2.05;;;16.10;99.90;;;;;;6237573;23;20374;-71
2022/07/08 06:57:53;;;;;;;15.05;3.60;;;16.20;99.90;;;;;;6209334;23;20020;-70
2022/07/08 07:00:22;;;;;;;16.80;2.03;;;16.30;99.90;;;;;;6236221;23;20027;-70
2022/07/08 07:02:48;;;;;;;10.55;1.88;;;16.30;99.90;;;;;;6234460;23;20016;-70
2022/07/08 07:05:19;;;;;;;8.65;1.95;;;16.40;99.90;;;;;;6236262;23;20030;-70
2022/07/08 07:07:45;;;;;;;18.27;2.45;;;16.40;99.90;;;;;;6235072;23;20024;-69
2022/07/08 07:10:11;;;;;;;9.18;2.08;;;16.60;99.90;;;;;;6235362;23;20444;-70
2022/07/08 07:12:37;;;;;;;9.20;1.83;;;16.60;99.90;;;;;;6235779;23;20020;-70
2022/07/08 07:15:03;;;;;;;8.98;1.98;;;16.60;99.90;;;;;;6233293;23;20031;-71
2022/07/08 07:17:29;;;;;;;8.10;2.05;;;16.60;99.90;;;;;;6233437;23;20371;-70
2022/07/08 07:19:55;;;;;;;6.68;1.60;;;16.60;99.90;;;;;;6231558;23;20031;-70
2022/07/08 07:22:21;;;;;;;10.20;2.40;;;16.60;99.90;;;;;;6233473;23;20016;-71
2022/07/08 07:24:46;;;;;;;10.27;2.50;;;16.50;99.90;;;;;;6231418;23;20020;-70
2022/07/08 07:27:12;;;;;;;14.63;2.58;;;16.40;99.90;;;;;;6233342;23;20097;-70
2022/07/08 07:29:38;;;;;;;6.13;1.80;;;16.30;99.90;;;;;;6233398;23;20020;-71
2022/07/08 07:32:04;;;;;;;13.82;3.25;;;16.30;99.90;;;;;;6233491;23;20024;-70
2022/07/08 07:34:29;;;;;;;11.02;1.92;;;16.30;99.90;;;;;;6207805;23;20031;-70
2022/07/08 07:36:55;;;;;;;10.23;1.73;;;16.30;99.90;;;;;;6206921;23;20016;-70
2022/07/08 07:39:21;;;;;;;13.52;1.83;;;16.30;99.90;;;;;;6233102;23;20020;-69
2022/07/08 07:41:46;;;;;;;12.77;2.13;;;16.30;99.90;;;;;;6236803;23;20024;-70
2022/07/08 07:44:12;;;;;;;11.05;1.90;;;16.30;99.90;;;;;;6236434;23;20027;-70
2022/07/08 07:46:38;;;;;;;17.13;2.10;;;16.40;99.90;;;;;;6237544;22;20094;-70
2022/07/08 07:49:04;;;;;;;14.73;2.50;;;16.50;99.90;;;;;;6237309;23;20497;-69
2022/07/08 07:51:30;;;;;;;12.02;2.38;;;16.50;99.90;;;;;;6236951;23;20043;-69
2022/07/08 07:53:56;;;;;;;9.95;2.47;;;16.60;99.90;;;;;;6237094;23;20016;-70
2022/07/08 07:56:23;;;;;;;8.23;2.28;;;16.60;99.90;;;;;;6237144;23;20020;-70
2022/07/08 07:58:49;;;;;;;16.77;2.10;;;16.60;99.90;;;;;;6235708;23;20095;-69
2022/07/08 08:01:14;;;;;;;6.88;2.58;;;16.60;99.90;;;;;;6238330;23;20059;-70
2022/07/08 08:03:40;;;;;;;11.57;3.47;;;16.60;99.90;;;;;;6238225;23;20116;-70
2022/07/08 08:06:07;;;;;;;12.98;3.70;;;16.60;99.90;;;;;;6239379;23;20454;-70
2022/07/08 08:08:33;;;;;;;11.02;2.80;;;16.70;99.90;;;;;;6239879;23;20083;-70
2022/07/08 08:11:00;;;;;;;8.43;2.25;;;16.70;99.90;;;;;;6236728;23;20100;-70
2022/07/08 08:13:27;;;;;;;9.48;2.97;;;16.70;99.90;;;;;;6240095;23;20032;-70
2022/07/08 08:15:53;;;;;;;12.13;3.33;;;16.80;99.90;;;;;;6236508;23;20047;-71
2022/07/08 08:18:19;;;;;;;7.47;2.05;;;16.80;99.90;;;;;;6238075;23;20027;-70
2022/07/08 08:20:45;;;;;;;10.80;1.42;;;16.80;99.90;;;;;;6236941;23;20024;-70
2022/07/08 08:23:11;;;;;;;13.52;1.90;;;16.70;99.90;;;;;;6212328;23;20027;-70
2022/07/08 08:25:37;;;;;;;12.13;2.08;;;16.70;99.90;;;;;;6237706;23;20090;-70
2022/07/08 08:28:03;;;;;;;9.90;1.58;;;16.70;99.90;;;;;;6237947;23;20031;-69
2022/07/08 08:30:30;;;;;;;10.07;1.67;;;16.70;99.90;;;;;;6241176;23;20032;-70
2022/07/08 08:32:57;;;;;;;10.88;2.55;;;16.80;99.90;;;;;;6234634;22;20617;-70
2022/07/08 08:35:24;;;;;;;14.05;3.67;;;16.70;99.90;;;;;;6238604;23;20158;-70
2022/07/08 08:37:50;;;;;;;12.50;2.15;;;16.70;99.90;;;;;;6236996;23;20026;-70
2022/07/08 08:40:20;;;;;;;12.77;2.40;;;16.70;99.90;;;;;;6239305;23;20020;-70
2022/07/08 08:42:46;;;;;;;5.70;1.50;;;16.70;99.90;;;;;;6236250;23;20016;-70
2022/07/08 08:45:12;;;;;;;12.13;1.83;;;16.70;99.90;;;;;;6262095;22;20058;-70
2022/07/08 08:47:38;;;;;;;8.68;2.05;;;16.70;99.90;;;;;;6235490;23;20024;-70
2022/07/08 08:52:55;;;;;;;10.43;1.80;;;16.70;99.90;;;;;;6238608;23;20021;-70
2022/07/08 08:55:29;;;;;;;10.68;1.70;;;16.70;99.90;;;;;;6212185;23;20027;-70
2022/07/08 08:58:00;;;;;;;15.48;2.13;;;16.70;99.90;;;;;;6235291;23;20489;-70
2022/07/08 09:00:27;;;;;;;10.10;1.80;;;16.80;99.90;;;;;;6235279;23;20091;-69
2022/07/08 09:02:53;;;;;;;12.75;2.38;;;16.80;99.90;;;;;;6237015;23;20016;-70
2022/07/08 09:05:21;;;;;;;5.80;1.67;;;16.80;99.90;;;;;;6210589;23;20012;-70
2022/07/08 09:07:47;;;;;;;6.43;1.90;;;16.80;99.90;;;;;;6234509;23;20016;-70
2022/07/08 09:10:17;;;;;;;10.80;1.70;;;16.90;99.90;;;;;;6237327;23;20439;-70
2022/07/08 09:13:01;;;;;;;6.53;1.58;;;16.90;99.90;;;;;;6235455;23;20027;-70
2022/07/08 09:15:42;;;;;;;12.98;1.85;;;17.00;99.90;;;;;;6236370;23;20020;-70
2022/07/08 09:18:16;;;;;;;10.70;1.80;;;17.10;99.90;;;;;;6236260;23;20088;-71
2022/07/08 09:20:47;;;;;;;18.10;2.55;;;17.10;99.90;;;;;;6235355;23;20074;-70
2022/07/08 09:23:18;;;;;;;8.55;1.60;;;17.20;99.90;;;;;;6210558;23;20344;-70
2022/07/08 09:25:52;;;;;;;7.60;1.85;;;17.30;99.90;;;;;;6236382;23;20024;-70
2022/07/08 09:28:49;;;;;;;13.57;2.22;;;17.30;99.90;;;;;;6237091;23;20027;-70
2022/07/08 09:31:15;;;;;;;6.15;1.60;;;17.40;99.90;;;;;;6193904;23;20031;-70
2022/07/08 09:33:43;;;;;;;18.58;2.65;;;17.40;99.90;;;;;;6236172;22;20024;-71
2022/07/08 09:36:09;;;;;;;16.33;3.47;;;17.40;99.90;;;;;;6236527;23;20012;-70
2022/07/08 09:38:37;;;;;;;8.63;2.45;;;17.40;99.90;;;;;;6236294;23;20024;-70
2022/07/08 09:41:05;;;;;;;13.63;2.00;;;17.40;99.90;;;;;;6236921;23;20020;-71
2022/07/08 09:43:33;;;;;;;8.43;1.90;;;17.50;99.90;;;;;;6207675;23;20382;-71
2022/07/08 09:46:05;;;;;;;12.43;2.45;;;17.50;99.90;;;;;;6207834;23;20028;-71
2022/07/08 09:48:32;;;;;;;16.35;2.50;;;17.50;99.90;;;;;;6183390;23;20047;-71
2022/07/08 09:51:00;;;;;;;5.32;1.77;;;17.50;99.90;;;;;;6207250;23;20109;-71
2022/07/08 09:53:28;;;;;;;9.82;1.67;;;17.60;99.90;;;;;;6208226;23;20016;-70
2022/07/08 09:55:55;;;;;;;8.00;2.05;;;17.60;99.90;;;;;;6207133;23;20019;-71
2022/07/08 09:58:23;;;;;;;12.65;1.98;;;17.70;99.90;;;;;;6208740;23;20039;-70
2022/07/08 10:00:51;;;;;;;11.60;2.90;;;17.80;99.90;;;;;;6208639;23;20320;-70
2022/07/08 10:03:19;;;;;;;7.85;2.33;;;17.90;99.90;;;;;;6207965;23;20012;-71
2022/07/08 10:05:45;;;;;;;12.50;2.17;;;17.90;99.90;;;;;;6211750;23;20024;-70
2022/07/08 10:08:12;;;;;;;10.98;2.72;;;18.00;99.90;;;;;;6237041;23;20119;-71
2022/07/08 10:10:40;;;;;;;7.65;2.10;;;18.20;99.90;;;;;;6211573;23;20016;-71
2022/07/08 10:13:06;;;;;;;9.52;2.47;;;18.30;99.90;;;;;;6184329;23;20181;-70
2022/07/08 10:15:34;;;;;;;6.93;1.90;;;18.40;99.90;;;;;;6238533;23;20024;-70
2022/07/08 10:18:16;;;;;;;13.05;2.35;;;18.60;99.90;;;;;;6209740;23;20012;-70
2022/07/08 10:20:46;;;;;;;14.60;2.75;;;18.90;99.90;;;;;;6236557;23;20012;-71
2022/07/08 10:23:21;;;;;;;8.38;1.88;;;19.00;99.90;;;;;;6184802;23;20016;-71
2022/07/08 10:25:48;;;;;;;6.05;1.83;;;19.00;99.90;;;;;;6184818;23;20050;-71
2022/07/08 10:28:14;;;;;;;12.73;2.03;;;19.00;99.90;;;;;;6210003;23;20020;-72
2022/07/08 10:30:52;;;;;;;6.32;1.88;;;19.00;99.90;;;;;;6209687;23;20016;-72
2022/07/08 10:33:19;;;;;;;10.88;2.40;;;19.00;99.90;;;;;;6210365;23;20016;-71
2022/07/08 10:36:09;;;;;;;5.35;1.52;;;19.10;99.90;;;;;;6210673;23;20493;-71
2022/07/08 10:38:36;;;;;;;8.48;1.85;;;19.30;99.90;;;;;;6209168;23;20027;-71
2022/07/08 10:41:13;;;;;;;9.27;2.15;;;19.60;99.90;;;;;;6186355;23;20016;-72
2022/07/08 10:43:54;;;;;;;9.32;2.25;;;19.70;99.90;;;;;;6184720;23;20081;-71
2022/07/08 10:46:21;;;;;;;11.85;1.92;;;19.70;99.90;;;;;;6185360;23;20577;-71
2022/07/08 10:49:12;;;;;;;7.35;1.85;;;19.80;99.90;;;;;;6211409;23;20032;-72
2022/07/08 10:51:45;;;;;;;9.27;1.95;;;20.00;99.90;;;;;;6239042;23;20695;-71
2022/07/08 10:54:24;;;;;;;10.55;2.20;;;20.10;99.90;;;;;;6211387;23;20099;-71
2022/07/08 10:56:58;;;;;;;9.38;1.80;;;19.90;99.90;;;;;;6208013;23;20020;-72
2022/07/08 10:59:35;;;;;;;9.65;1.83;;;19.90;99.90;;;;;;6207314;23;20020;-71
2022/07/08 11:02:13;;;;;;;7.90;1.45;;;20.10;99.90;;;;;;6208887;23;20455;-72
2022/07/08 11:04:43;;;;;;;6.75;2.33;;;20.30;99.90;;;;;;6206530;23;20578;-72
2022/07/08 11:07:23;;;;;;;7.45;2.22;;;20.20;99.90;;;;;;6207663;23;20016;-71
2022/07/08 11:09:49;;;;;;;;;;;20.30;99.90;;;;;;6208160;23;20051;-72
2022/07/08 11:12:17;;;;;;;9.00;1.55;;;20.40;99.90;;;;;;6181553;23;19926;-71
2022/07/08 11:14:45;;;;;;;9.98;2.03;;;20.50;99.90;;;;;;6182945;23;20020;-72
2022/07/08 11:17:29;;;;;;;6.30;1.75;;;20.60;99.90;;;;;;6206995;23;20095;-71
2022/07/08 11:19:56;;;;;;;8.52;2.05;;;20.50;99.90;;;;;;6185340;23;20039;-71
2022/07/08 11:22:24;;;;;;;8.35;2.42;;;20.50;99.90;;;;;;6209444;23;20058;-71
2022/07/08 11:24:50;;;;;;;8.80;2.05;;;20.30;99.90;;;;;;6211008;23;20036;-71
2022/07/08 11:27:16;;;;;;;8.15;1.98;;;20.20;99.90;;;;;;6210024;23;20020;-71
2022/07/08 11:29:47;;;;;;;5.32;1.65;;;20.20;99.90;;;;;;6184851;23;20400;-72
2022/07/08 11:32:13;;;;;;;8.88;2.38;;;20.10;99.90;;;;;;6209828;23;20028;-71
2022/07/08 11:34:39;;;;;;;9.88;1.88;;;20.10;99.90;;;;;;6210385;23;20123;-71
2022/07/08 11:37:05;;;;;;;5.13;1.77;;;20.10;99.90;;;;;;6185643;23;20024;-72
2022/07/08 11:39:32;;;;;;;6.43;2.10;;;20.20;99.90;;;;;;6208809;23;20089;-71
2022/07/08 11:41:58;;;;;;;8.45;1.85;;;20.20;99.90;;;;;;6185910;23;20459;-71
2022/07/08 11:44:27;;;;;;;8.48;2.05;;;20.30;99.90;;;;;;6184691;23;20024;-71
2022/07/08 11:46:53;;;;;;;5.63;1.60;;;20.50;99.90;;;;;;6210602;23;20107;-71
2022/07/08 11:49:23;;;;;;;14.27;2.25;;;20.70;99.90;;;;;;6210542;23;20027;-72
2022/07/08 11:51:51;;;;;;;10.57;2.10;;;20.70;99.90;;;;;;6209910;23;20027;-71
2022/07/08 11:54:21;;;;;;;8.73;1.95;;;20.80;99.90;;;;;;6210709;23;20095;-72
2022/07/08 11:56:51;;;;;;;7.47;1.85;;;20.70;99.90;;;;;;6210264;23;20020;-71
2022/07/08 11:59:24;;;;;;;9.85;2.30;;;20.70;99.90;;;;;;6210300;23;20086;-72
2022/07/08 12:01:55;;;;;;;7.45;2.08;;;20.60;99.90;;;;;;6210507;23;20486;-72
2022/07/08 12:04:21;;;;;;;12.98;1.98;;;20.60;99.90;;;;;;6210021;23;20055;-71
2022/07/08 12:06:49;;;;;;;5.15;1.75;;;20.60;99.90;;;;;;6211119;23;20047;-72
2022/07/08 12:09:16;;;;;;;6.40;1.52;;;20.50;99.90;;;;;;6209310;23;20016;-72
2022/07/08 12:11:44;;;;;;;7.68;1.80;;;20.40;99.90;;;;;;6186077;23;20474;-73
2022/07/08 12:14:13;;;;;;;7.40;1.63;;;20.30;99.90;;;;;;6236824;23;20170;-71
2022/07/08 12:16:44;;;;;;;9.85;1.85;;;20.20;99.90;;;;;;6210747;23;20052;-72
2022/07/08 12:19:45;;;;;;;6.20;1.42;;;20.20;99.90;;;;;;6210720;23;20473;-71
2022/07/08 12:22:13;;;;;;;6.40;1.60;;;20.30;99.90;;;;;;6188698;23;20415;-69
2022/07/08 12:24:41;;;;;;;5.47;1.58;;;20.30;99.90;;;;;;6211013;23;20020;-70
2022/07/08 12:27:16;;;;;;;3.78;1.45;;;20.30;99.90;;;;;;6184888;23;20016;-69
2022/07/08 12:29:42;;;;;;;7.57;1.70;;;20.40;99.90;;;;;;6210903;23;20020;-70
2022/07/08 12:32:11;;;;;;;7.55;1.50;;;20.50;99.90;;;;;;6210517;23;20347;-69
2022/07/08 12:34:48;;;;;;;6.22;1.65;;;20.40;99.90;;;;;;6184866;23;20016;-70
2022/07/08 12:37:19;;;;;;;8.52;1.77;;;20.40;99.90;;;;;;6210396;23;20095;-69
2022/07/08 12:39:45;;;;;;;6.75;2.00;;;20.30;99.90;;;;;;6237948;23;20024;-69
2022/07/08 12:42:11;;;;;;;7.93;2.05;;;20.30;99.90;;;;;;6212107;23;20119;-69
2022/07/08 12:44:41;;;;;;;8.75;1.60;;;20.30;99.90;;;;;;6186243;23;20019;-70
2022/07/08 12:47:12;;;;;;;11.63;2.78;;;20.30;99.90;;;;;;6212174;23;20020;-69